createdAt,value
2022-11-09T00:14:47.052Z,966.06
2022-11-09T00:29:49.265Z,966.06
2022-11-09T00:44:51.596Z,966.05
2022-11-09T00:59:53.843Z,965.98
2022-11-09T01:14:56.229Z,966.03
2022-11-09T01:29:58.555Z,966.03
2022-11-09T01:45:01.090Z,966.02
2022-11-09T02:00:03.616Z,966.08
2022-11-09T02:15:06.365Z,966.02
2022-11-09T02:30:08.971Z,966.07
2022-11-09T02:45:11.778Z,966.19
2022-11-09T03:00:14.377Z,966.23
2022-11-09T03:15:16.766Z,966.24
2022-11-09T03:30:19.344Z,966.39
2022-11-09T03:45:21.743Z,966.36
2022-11-09T04:00:24.474Z,966.32
2022-11-09T04:15:26.934Z,966.29
2022-11-09T04:30:29.606Z,966.25
2022-11-09T04:45:32.124Z,966.24
2022-11-09T05:00:34.913Z,966.21
2022-11-09T05:15:37.907Z,966.08
2022-11-09T05:30:40.482Z,966.11
2022-11-09T05:45:43.935Z,966.16
2022-11-09T06:00:46.593Z,966.15
2022-11-09T06:15:49.068Z,966.11
2022-11-09T06:30:51.518Z,965.87
2022-11-09T06:45:53.929Z,965.54
2022-11-09T07:00:56.323Z,965.55
2022-11-09T07:15:58.695Z,965.49
2022-11-09T07:31:01.064Z,965.32
2022-11-09T07:46:03.359Z,965.27
2022-11-09T08:01:05.809Z,965.15
2022-11-09T08:16:08.223Z,965.13
2022-11-09T08:31:10.827Z,965.13
2022-11-09T08:46:13.301Z,965.14
2022-11-09T09:01:17.310Z,965.04
2022-11-09T09:16:19.902Z,964.94
2022-11-09T09:31:22.314Z,964.89
2022-11-09T09:46:24.748Z,964.86
2022-11-09T10:01:27.267Z,964.72
2022-11-09T10:16:29.660Z,964.53
2022-11-09T10:31:31.867Z,964.45
2022-11-09T10:46:34.163Z,964.45
2022-11-09T11:01:36.591Z,964.43
2022-11-09T11:16:38.870Z,964.3
2022-11-09T11:31:41.310Z,964.3
2022-11-09T11:46:43.741Z,964.08
2022-11-09T12:01:46.005Z,964.1
2022-11-09T12:16:48.356Z,964.12
2022-11-09T12:31:50.715Z,964.3
2022-11-09T12:46:53.018Z,964.11
2022-11-09T13:01:55.345Z,964.02
2022-11-09T13:16:57.663Z,964.23
2022-11-09T13:32:00.099Z,964.03
2022-11-09T13:47:02.300Z,963.91
2022-11-09T14:02:04.813Z,963.8
2022-11-09T14:17:07.264Z,963.78
2022-11-09T14:32:09.494Z,963.95
2022-11-09T14:47:11.745Z,963.88
2022-11-09T15:02:14.369Z,964.08
2022-11-09T15:17:17.012Z,964.22
2022-11-09T15:32:19.340Z,964.28
2022-11-09T15:47:21.676Z,964.19
2022-11-09T16:02:24.540Z,964.26
2022-11-09T16:17:26.810Z,964.47
2022-11-09T16:32:29.148Z,964.19
2022-11-09T16:47:31.707Z,964.19
2022-11-09T17:02:34.192Z,964.12
2022-11-09T17:17:36.523Z,964.08
2022-11-09T17:32:38.702Z,964.08
2022-11-09T17:47:40.849Z,964.06
2022-11-09T18:02:43.161Z,964.24
2022-11-09T18:17:45.428Z,964.09
2022-11-09T18:32:47.660Z,963.97
2022-11-09T18:47:49.877Z,963.97
2022-11-09T19:02:52.103Z,963.84
2022-11-09T19:17:54.450Z,963.66
2022-11-09T19:32:56.702Z,963.56
2022-11-09T19:47:58.967Z,963.51
2022-11-09T20:03:01.194Z,963.3
2022-11-09T20:18:03.503Z,963.33
2022-11-09T20:33:06.318Z,963.46
2022-11-09T20:48:24.889Z,963.5
2022-11-09T21:03:49.248Z,963.71
2022-11-09T21:18:51.632Z,963.8
2022-11-09T21:33:53.931Z,964.05
2022-11-09T21:48:56.140Z,963.93
2022-11-09T22:03:58.415Z,964.02
2022-11-09T22:19:00.874Z,963.97
2022-11-09T22:34:03.139Z,964
2022-11-09T23:19:27.816Z,964.49
2022-11-09T23:34:30.243Z,964.66
2022-11-09T23:49:32.717Z,964.76
